createdAt,value
2023-02-13T00:00:25.852Z,52.43
2023-02-13T00:02:53.286Z,53.07
2023-02-13T00:05:20.648Z,53.15
2023-02-13T00:07:48.064Z,53.08
2023-02-13T00:10:15.530Z,53.55
2023-02-13T00:12:42.897Z,53.45
2023-02-13T00:15:10.688Z,54.33
2023-02-13T00:17:38.116Z,54.73
2023-02-13T00:20:06.552Z,55.00
2023-02-13T00:22:38.186Z,55.16
2023-02-13T00:25:06.364Z,55.39
2023-02-13T00:27:34.154Z,55.58
2023-02-13T00:30:03.846Z,55.01
2023-02-13T00:32:32.136Z,54.90
2023-02-13T00:35:18.422Z,54.71
2023-02-13T00:37:45.767Z,54.78
2023-02-13T00:40:13.498Z,55.28
2023-02-13T00:42:40.854Z,55.16
2023-02-13T00:45:08.730Z,55.34
2023-02-13T00:47:36.312Z,55.32
2023-02-13T00:50:03.860Z,55.54
2023-02-13T00:52:31.340Z,55.20
2023-02-13T00:54:58.738Z,55.52
2023-02-13T00:57:26.110Z,55.15
2023-02-13T00:59:53.476Z,55.97
2023-02-13T01:02:20.877Z,55.97
2023-02-13T01:04:48.291Z,56.73
2023-02-13T01:07:16.727Z,56.84
2023-02-13T01:09:44.947Z,57.35
2023-02-13T01:12:12.305Z,57.85
2023-02-13T01:14:39.622Z,57.41
2023-02-13T01:17:06.941Z,57.26
2023-02-13T01:19:34.285Z,57.30
2023-02-13T01:22:01.669Z,57.33
2023-02-13T01:24:30.125Z,57.33
2023-02-13T01:26:59.048Z,57.76
2023-02-13T01:29:26.435Z,57.73
2023-02-13T01:31:53.873Z,57.88
2023-02-13T01:34:21.282Z,57.96
2023-02-13T01:36:48.667Z,58.29
2023-02-13T01:39:16.044Z,58.40
2023-02-13T01:41:44.476Z,58.55
2023-02-13T01:44:49.518Z,59.03
2023-02-13T01:47:24.574Z,58.80
2023-02-13T01:50:02.777Z,59.42
2023-02-13T01:52:30.915Z,59.81
2023-02-13T01:54:58.473Z,59.63
2023-02-13T01:57:31.124Z,59.46
2023-02-13T02:00:17.590Z,59.76
2023-02-13T02:02:51.361Z,59.97
2023-02-13T02:05:24.549Z,60.04
2023-02-13T02:07:54.715Z,60.30
2023-02-13T02:10:24.106Z,60.68
2023-02-13T02:13:14.725Z,60.41
2023-02-13T02:15:43.165Z,59.96
2023-02-13T02:18:37.127Z,60.30
2023-02-13T02:21:21.024Z,60.94
2023-02-13T02:24:09.884Z,60.74
2023-02-13T02:26:46.487Z,60.76
2023-02-13T02:29:59.491Z,61.06
2023-02-13T02:32:39.004Z,60.94
2023-02-13T02:35:45.753Z,61.70
2023-02-13T02:38:33.169Z,61.95
2023-02-13T02:41:08.391Z,61.89
2023-02-13T02:43:40.597Z,62.24
2023-02-13T02:46:31.395Z,61.64
2023-02-13T02:49:28.205Z,61.48
2023-02-13T02:52:07.003Z,61.64
2023-02-13T02:55:06.726Z,61.54
2023-02-13T02:58:05.308Z,61.27
2023-02-13T03:00:56.049Z,60.94
2023-02-13T03:03:44.799Z,60.87
2023-02-13T03:06:20.526Z,60.98
2023-02-13T03:09:12.991Z,60.87
2023-02-13T03:12:03.233Z,61.18
2023-02-13T03:14:30.594Z,61.61
2023-02-13T03:17:17.265Z,61.73
2023-02-13T03:20:16.362Z,62.29
2023-02-13T03:23:14.314Z,62.85
2023-02-13T03:26:01.016Z,63.05
2023-02-13T03:29:02.210Z,63.00
2023-02-13T03:31:38.785Z,62.54
2023-02-13T03:34:13.314Z,62.77
2023-02-13T03:37:18.578Z,62.56
2023-02-13T03:40:05.650Z,62.74
2023-02-13T03:42:44.009Z,63.09
2023-02-13T03:45:37.856Z,63.37
2023-02-13T03:48:31.695Z,63.13
2023-02-13T03:51:04.076Z,63.14
2023-02-13T03:53:35.640Z,63.20
2023-02-13T03:56:22.112Z,63.55
2023-02-13T03:59:12.531Z,63.68
2023-02-13T04:01:40.904Z,63.40
2023-02-13T04:04:09.960Z,63.75
2023-02-13T04:06:52.067Z,63.95
2023-02-13T04:09:20.101Z,63.78
2023-02-13T04:12:00.319Z,63.92
2023-02-13T04:14:40.799Z,63.81
2023-02-13T04:17:17.750Z,63.50
2023-02-13T04:19:45.286Z,63.33
2023-02-13T04:22:13.188Z,63.61
2023-02-13T04:24:40.687Z,63.86
2023-02-13T04:27:08.420Z,64.15
2023-02-13T04:29:35.792Z,63.68
2023-02-13T04:32:03.360Z,63.58
2023-02-13T04:34:30.756Z,64.31
2023-02-13T04:36:58.125Z,64.81
2023-02-13T04:39:25.414Z,64.69
2023-02-13T04:41:52.756Z,64.07
2023-02-13T04:44:20.104Z,64.30
2023-02-13T04:46:47.502Z,64.77
2023-02-13T04:49:14.864Z,64.47
2023-02-13T04:51:42.341Z,64.10
2023-02-13T04:54:11.029Z,64.09
2023-02-13T04:56:38.367Z,64.53
2023-02-13T04:59:05.727Z,64.22
2023-02-13T05:01:33.102Z,64.02
2023-02-13T05:04:00.484Z,63.94
2023-02-13T05:06:27.811Z,63.62
2023-02-13T05:08:55.160Z,63.56
2023-02-13T05:11:22.566Z,63.90
2023-02-13T05:13:49.880Z,63.94
2023-02-13T05:16:17.235Z,64.19
2023-02-13T05:18:44.601Z,64.18
2023-02-13T05:21:30.537Z,63.87
2023-02-13T05:23:57.927Z,63.83
2023-02-13T05:26:25.319Z,64.29
2023-02-13T05:29:11.337Z,64.42
2023-02-13T05:31:38.800Z,64.21
2023-02-13T05:34:06.237Z,64.34
2023-02-13T05:36:33.604Z,64.05
2023-02-13T05:39:00.994Z,64.00
2023-02-13T05:41:28.393Z,64.11
2023-02-13T05:43:55.721Z,63.71
2023-02-13T05:46:23.195Z,63.71
2023-02-13T05:48:51.776Z,63.26
2023-02-13T05:51:20.152Z,64.50
2023-02-13T05:53:47.600Z,64.71
2023-02-13T05:56:15.008Z,64.44
2023-02-13T05:58:42.354Z,64.99
2023-02-13T06:01:09.754Z,65.41
2023-02-13T06:03:37.316Z,65.61
2023-02-13T06:06:05.064Z,65.27
2023-02-13T06:08:32.459Z,65.61
2023-02-13T06:11:00.089Z,66.32
2023-02-13T06:13:27.718Z,66.24
2023-02-13T06:15:55.367Z,66.49
2023-02-13T06:18:23.195Z,66.55
2023-02-13T06:20:50.617Z,66.97
2023-02-13T06:23:18.154Z,66.52
2023-02-13T06:25:45.536Z,67.10
2023-02-13T06:28:13.031Z,67.92
2023-02-13T06:30:40.435Z,68.36
2023-02-13T06:33:13.608Z,68.62
2023-02-13T06:35:41.093Z,68.82
2023-02-13T06:38:08.481Z,68.23
2023-02-13T06:40:35.853Z,68.12
2023-02-13T06:43:03.310Z,67.92
2023-02-13T06:45:30.722Z,68.13
2023-02-13T06:47:58.077Z,67.98
2023-02-13T06:50:25.444Z,68.10
2023-02-13T06:52:52.859Z,67.97
2023-02-13T06:55:21.024Z,68.59
2023-02-13T06:57:48.500Z,68.48
2023-02-13T07:00:17.971Z,68.78
2023-02-13T07:02:47.114Z,68.19
2023-02-13T07:05:15.220Z,68.02
2023-02-13T07:07:43.342Z,68.04
2023-02-13T07:10:13.713Z,67.78
2023-02-13T07:12:41.332Z,68.03
2023-02-13T07:15:09.063Z,67.83
2023-02-13T07:17:36.561Z,67.91
2023-02-13T07:20:05.271Z,68.43
2023-02-13T07:22:33.381Z,68.11
2023-02-13T07:25:01.748Z,67.96
2023-02-13T07:27:29.538Z,68.51
2023-02-13T07:29:57.712Z,68.42
2023-02-13T07:32:25.834Z,68.49
2023-02-13T07:35:01.747Z,68.03
2023-02-13T07:37:31.286Z,68.07
2023-02-13T07:39:58.642Z,67.51
2023-02-13T07:42:25.978Z,67.16
2023-02-13T07:44:53.330Z,67.48
2023-02-13T07:47:20.651Z,67.43
2023-02-13T07:49:47.926Z,67.60
2023-02-13T07:52:15.259Z,67.07
2023-02-13T07:54:47.701Z,66.42
2023-02-13T07:57:16.768Z,66.66
2023-02-13T07:59:44.151Z,66.68
2023-02-13T08:02:13.368Z,66.38
2023-02-13T08:04:41.202Z,65.49
2023-02-13T08:07:08.586Z,65.86
2023-02-13T08:09:54.479Z,65.39
2023-02-13T08:12:22.325Z,64.72
2023-02-13T08:14:49.607Z,64.32
2023-02-13T08:17:16.878Z,64.14
2023-02-13T08:19:44.457Z,63.48
2023-02-13T08:22:11.892Z,63.05
2023-02-13T08:24:39.200Z,60.58
2023-02-13T08:27:06.491Z,55.97
2023-02-13T08:29:34.623Z,52.96
2023-02-13T08:32:01.965Z,51.30
2023-02-13T08:34:29.374Z,48.33
2023-02-13T08:36:56.816Z,45.04
2023-02-13T08:39:24.396Z,41.14
2023-02-13T08:41:51.828Z,41.71
2023-02-13T08:44:19.321Z,43.42
2023-02-13T08:46:46.682Z,43.23
2023-02-13T08:49:14.037Z,41.77
2023-02-13T08:51:41.455Z,40.21
2023-02-13T08:54:08.865Z,41.93
2023-02-13T08:56:36.257Z,41.62
2023-02-13T08:59:03.733Z,40.60
2023-02-13T09:01:31.139Z,41.62
2023-02-13T09:03:58.653Z,41.85
2023-02-13T09:06:27.661Z,40.77
2023-02-13T09:08:55.230Z,38.51
2023-02-13T09:11:23.574Z,38.80
2023-02-13T09:13:54.614Z,40.43
2023-02-13T09:16:22.549Z,42.38
2023-02-13T09:18:51.205Z,45.42
2023-02-13T09:21:21.076Z,47.24
2023-02-13T09:23:48.616Z,48.56
2023-02-13T09:26:18.173Z,49.30
2023-02-13T09:28:47.144Z,49.83
2023-02-13T09:31:20.160Z,49.52
2023-02-13T09:33:48.800Z,50.87
2023-02-13T09:36:20.366Z,51.82
2023-02-13T09:38:51.702Z,52.56
2023-02-13T09:41:31.295Z,52.20
2023-02-13T09:44:03.092Z,51.62
2023-02-13T09:46:38.539Z,50.86
2023-02-13T09:49:12.518Z,51.96
2023-02-13T09:51:42.840Z,51.02
2023-02-13T09:54:16.451Z,50.85
2023-02-13T09:57:05.409Z,51.27
2023-02-13T09:59:51.212Z,51.38
2023-02-13T10:02:37.113Z,51.66
2023-02-13T10:05:17.436Z,51.43
2023-02-13T10:07:58.235Z,51.43
2023-02-13T10:10:50.676Z,51.21
2023-02-13T10:13:37.459Z,50.38
2023-02-13T10:16:22.155Z,49.61
2023-02-13T10:18:57.670Z,50.22
2023-02-13T10:21:31.365Z,50.17
2023-02-13T10:24:05.002Z,50.64
2023-02-13T10:26:48.294Z,51.86
2023-02-13T10:29:48.244Z,51.04
2023-02-13T10:32:19.250Z,51.37
2023-02-13T10:34:48.021Z,52.39
2023-02-13T10:37:21.826Z,50.88
2023-02-13T10:39:51.710Z,50.63
2023-02-13T10:42:23.925Z,50.52
2023-02-13T10:45:18.623Z,50.45
2023-02-13T10:47:52.012Z,50.11
2023-02-13T10:50:43.823Z,50.42
2023-02-13T10:53:31.737Z,50.97
2023-02-13T10:56:01.861Z,50.68
2023-02-13T10:58:50.236Z,50.67
2023-02-13T11:01:34.780Z,50.99
2023-02-13T11:04:07.039Z,51.13
2023-02-13T11:06:42.545Z,50.93
2023-02-13T11:09:10.267Z,50.88
2023-02-13T11:11:40.376Z,50.81
2023-02-13T11:14:21.241Z,50.36
2023-02-13T11:16:57.000Z,49.87
2023-02-13T11:19:35.438Z,50.19
2023-02-13T11:22:13.667Z,50.71
2023-02-13T11:24:51.924Z,50.91
2023-02-13T11:27:25.801Z,50.85
2023-02-13T11:29:56.984Z,51.72
2023-02-13T11:32:26.562Z,51.60
2023-02-13T11:34:57.230Z,51.36
2023-02-13T11:37:28.153Z,51.32
2023-02-13T11:40:08.330Z,51.62
2023-02-13T11:42:37.173Z,51.70
2023-02-13T11:45:22.178Z,52.00
2023-02-13T11:47:49.898Z,52.14
2023-02-13T11:50:22.897Z,52.33
2023-02-13T11:53:04.644Z,51.70
2023-02-13T11:55:34.000Z,51.62
2023-02-13T11:58:13.612Z,50.93
2023-02-13T12:00:42.405Z,50.88
2023-02-13T12:03:22.169Z,51.09
2023-02-13T12:06:22.145Z,51.42
2023-02-13T12:08:50.728Z,51.56
2023-02-13T12:11:20.888Z,51.55
2023-02-13T12:13:49.137Z,51.11
2023-02-13T12:16:40.151Z,50.95
2023-02-13T12:19:20.303Z,50.94
2023-02-13T12:22:07.690Z,51.31
2023-02-13T12:24:57.004Z,51.02
2023-02-13T12:27:47.122Z,51.36
2023-02-13T12:30:42.318Z,51.25
2023-02-13T12:33:32.889Z,50.83
2023-02-13T12:36:12.111Z,50.66
2023-02-13T12:38:54.357Z,50.62
2023-02-13T12:41:44.256Z,50.69
2023-02-13T12:44:25.446Z,50.86
2023-02-13T12:47:13.022Z,50.94
2023-02-13T12:49:52.467Z,50.91
2023-02-13T12:52:40.632Z,50.14
2023-02-13T12:55:36.048Z,49.82
2023-02-13T12:58:15.271Z,49.73
2023-02-13T13:00:55.097Z,49.48
2023-02-13T13:03:56.712Z,50.07
2023-02-13T13:07:01.117Z,49.72
2023-02-13T13:09:37.879Z,49.76
2023-02-13T13:12:11.459Z,49.32
2023-02-13T13:14:52.895Z,49.70
2023-02-13T13:17:44.706Z,49.10
2023-02-13T13:20:31.078Z,49.53
2023-02-13T13:23:11.449Z,48.90
2023-02-13T13:25:47.031Z,49.07
2023-02-13T13:28:28.951Z,49.36
2023-02-13T13:30:58.041Z,49.74
2023-02-13T13:33:28.364Z,49.60
2023-02-13T13:36:16.423Z,48.86
2023-02-13T13:39:06.175Z,48.70
2023-02-13T13:42:15.216Z,48.95
2023-02-13T13:44:45.374Z,48.62
2023-02-13T13:47:26.504Z,49.30
2023-02-13T13:49:59.688Z,49.33
2023-02-13T13:52:40.195Z,49.14
2023-02-13T13:55:46.080Z,49.13
2023-02-13T13:58:31.481Z,48.96
2023-02-13T14:01:18.997Z,48.81
2023-02-13T14:03:48.971Z,48.85
2023-02-13T14:06:22.149Z,48.93
2023-02-13T14:08:49.663Z,49.43
2023-02-13T14:11:31.251Z,48.88
2023-02-13T14:13:59.389Z,49.24
2023-02-13T14:16:44.708Z,49.57
2023-02-13T14:19:39.778Z,49.57
2023-02-13T14:22:19.047Z,49.55
2023-02-13T14:24:54.070Z,49.31
2023-02-13T14:27:24.571Z,48.84
2023-02-13T14:29:52.120Z,48.67
2023-02-13T14:32:34.062Z,48.50
2023-02-13T14:35:06.164Z,48.45
2023-02-13T14:37:47.387Z,48.78
2023-02-13T14:40:17.594Z,49.13
2023-02-13T14:42:48.746Z,49.04
2023-02-13T14:45:23.977Z,49.64
2023-02-13T14:47:57.429Z,49.61
2023-02-13T14:50:32.532Z,49.62
2023-02-13T14:53:04.008Z,49.87
2023-02-13T14:55:39.865Z,49.44
2023-02-13T14:58:12.471Z,49.71
2023-02-13T15:00:57.316Z,49.70
2023-02-13T15:03:31.048Z,49.60
2023-02-13T15:06:03.637Z,49.39
2023-02-13T15:08:46.152Z,49.54
2023-02-13T15:11:35.889Z,49.29
2023-02-13T15:14:19.892Z,49.34
2023-02-13T15:17:02.039Z,49.40
2023-02-13T15:19:30.058Z,49.12
2023-02-13T15:22:03.187Z,49.59
2023-02-13T15:24:37.984Z,50.29
2023-02-13T15:27:07.371Z,50.46
2023-02-13T15:29:47.920Z,50.66
2023-02-13T15:32:26.064Z,50.21
2023-02-13T15:34:53.564Z,50.82
2023-02-13T15:37:39.561Z,50.12
2023-02-13T15:40:21.899Z,50.29
2023-02-13T15:42:49.330Z,50.40
2023-02-13T15:45:18.792Z,50.69
2023-02-13T15:47:47.095Z,50.57
2023-02-13T15:50:35.325Z,50.97
2023-02-13T15:53:05.460Z,50.67
2023-02-13T15:55:36.250Z,50.83
2023-02-13T15:58:04.334Z,50.97
2023-02-13T16:00:39.406Z,51.28
2023-02-13T16:03:13.980Z,51.43
2023-02-13T16:05:41.845Z,51.77
2023-02-13T16:08:30.000Z,51.89
2023-02-13T16:11:20.962Z,52.25
2023-02-13T16:14:16.269Z,52.63
2023-02-13T16:16:48.736Z,52.59
2023-02-13T16:19:34.373Z,52.82
2023-02-13T16:22:38.539Z,52.88
2023-02-13T16:25:20.772Z,52.84
2023-02-13T16:28:04.208Z,53.09
2023-02-13T16:30:41.166Z,53.20
2023-02-13T16:33:14.596Z,53.65
2023-02-13T16:35:49.101Z,53.76
2023-02-13T16:38:33.645Z,53.95
2023-02-13T16:41:02.384Z,54.28
2023-02-13T16:43:57.056Z,54.10
2023-02-13T16:46:33.405Z,54.56
2023-02-13T16:49:06.807Z,54.73
2023-02-13T16:51:57.550Z,55.10
2023-02-13T16:54:44.630Z,55.34
2023-02-13T16:57:14.741Z,55.54
2023-02-13T16:59:48.178Z,56.11
2023-02-13T17:02:25.813Z,56.27
2023-02-13T17:05:05.933Z,56.29
2023-02-13T17:07:39.050Z,56.25
2023-02-13T17:10:17.976Z,56.50
2023-02-13T17:12:46.176Z,56.53
2023-02-13T17:15:16.545Z,56.70
2023-02-13T17:17:44.221Z,57.08
2023-02-13T17:20:24.150Z,57.09
2023-02-13T17:22:54.398Z,57.53
2023-02-13T17:25:23.302Z,57.35
2023-02-13T17:27:53.109Z,57.38
2023-02-13T17:30:23.511Z,57.43
2023-02-13T17:32:58.332Z,57.75
2023-02-13T17:35:25.790Z,58.02
2023-02-13T17:37:53.224Z,58.39
2023-02-13T17:40:22.993Z,58.05
2023-02-13T17:42:52.999Z,58.13
2023-02-13T17:45:23.613Z,58.25
2023-02-13T17:47:51.388Z,58.44
2023-02-13T17:50:19.320Z,58.39
2023-02-13T17:52:49.100Z,58.75
2023-02-13T17:55:21.240Z,58.81
2023-02-13T17:57:49.925Z,58.69
2023-02-13T18:00:20.279Z,58.80
2023-02-13T18:02:49.257Z,59.08
2023-02-13T18:05:18.328Z,59.10
2023-02-13T18:07:46.728Z,58.92
2023-02-13T18:10:18.377Z,59.00
2023-02-13T18:12:46.000Z,59.71
2023-02-13T18:15:13.847Z,60.23
2023-02-13T18:17:41.739Z,60.85
2023-02-13T18:20:14.669Z,60.46
2023-02-13T18:22:42.513Z,60.98
2023-02-13T18:25:10.782Z,61.19
2023-02-13T18:27:38.194Z,61.15
2023-02-13T18:30:06.870Z,61.09
2023-02-13T18:32:34.289Z,61.19
2023-02-13T18:35:02.619Z,61.70
2023-02-13T18:37:30.141Z,62.00
2023-02-13T18:39:57.606Z,61.93
2023-02-13T18:42:44.441Z,61.76
2023-02-13T18:45:12.222Z,62.16
2023-02-13T18:47:39.655Z,62.81
2023-02-13T18:50:08.239Z,63.01
2023-02-13T18:52:35.818Z,62.63
2023-02-13T18:55:06.346Z,63.31
2023-02-13T18:57:33.816Z,63.39
2023-02-13T19:00:01.192Z,63.38
2023-02-13T19:02:28.580Z,63.91
2023-02-13T19:04:55.986Z,63.63
2023-02-13T19:07:23.390Z,63.70
2023-02-13T19:09:50.792Z,63.78
2023-02-13T19:12:18.175Z,64.35
2023-02-13T19:14:45.570Z,64.63
2023-02-13T19:17:12.935Z,64.29
2023-02-13T19:19:40.296Z,63.73
2023-02-13T19:22:07.668Z,64.35
2023-02-13T19:24:35.009Z,64.67
2023-02-13T19:27:02.490Z,64.60
2023-02-13T19:29:29.884Z,64.68
2023-02-13T19:31:57.197Z,64.91
2023-02-13T19:34:24.603Z,64.84
2023-02-13T19:36:51.989Z,65.26
2023-02-13T19:39:19.468Z,64.24
2023-02-13T19:41:46.819Z,64.59
2023-02-13T19:44:14.381Z,64.62
2023-02-13T19:46:41.947Z,64.80
2023-02-13T19:49:10.074Z,64.90
2023-02-13T19:51:37.475Z,65.06
2023-02-13T19:54:07.096Z,64.74
2023-02-13T19:56:37.086Z,64.81
2023-02-13T19:59:06.879Z,64.74
2023-02-13T20:01:34.503Z,64.98
2023-02-13T20:04:02.198Z,64.72
2023-02-13T20:06:35.983Z,64.92
2023-02-13T20:09:11.989Z,65.32
2023-02-13T20:11:40.874Z,65.47
2023-02-13T20:14:14.386Z,65.31
2023-02-13T20:16:43.014Z,65.67
2023-02-13T20:19:12.205Z,65.95
2023-02-13T20:21:41.632Z,66.14
2023-02-13T20:24:10.862Z,66.14
2023-02-13T20:26:39.456Z,66.26
2023-02-13T20:29:07.065Z,66.61
2023-02-13T20:31:35.496Z,66.59
2023-02-13T20:34:06.383Z,66.28
2023-02-13T20:36:33.984Z,66.48
2023-02-13T20:39:04.039Z,66.77
2023-02-13T20:41:33.772Z,66.80
2023-02-13T20:44:06.901Z,66.31
2023-02-13T20:46:37.266Z,66.08
2023-02-13T20:49:08.303Z,66.12
2023-02-13T20:51:38.601Z,66.10
2023-02-13T20:54:06.397Z,66.13
2023-02-13T20:56:33.806Z,66.46
2023-02-13T20:59:02.592Z,67.27
2023-02-13T21:01:33.126Z,67.52
2023-02-13T21:04:01.289Z,67.35
2023-02-13T21:06:31.886Z,66.74
2023-02-13T21:09:00.077Z,66.88
2023-02-13T21:11:29.426Z,66.38
2023-02-13T21:13:58.315Z,66.41
2023-02-13T21:16:28.320Z,66.56
2023-02-13T21:18:58.636Z,66.84
2023-02-13T21:21:29.130Z,67.02
2023-02-13T21:23:59.282Z,67.14
2023-02-13T21:26:27.872Z,66.92
2023-02-13T21:28:55.631Z,67.67
2023-02-13T21:31:35.329Z,67.85
2023-02-13T21:34:06.225Z,67.70
2023-02-13T21:36:37.336Z,68.24
2023-02-13T21:39:07.311Z,68.94
2023-02-13T21:41:34.993Z,68.72
2023-02-13T21:44:02.905Z,68.20
2023-02-13T21:46:31.983Z,68.42
2023-02-13T21:49:04.555Z,67.83
2023-02-13T21:51:35.385Z,68.33
2023-02-13T21:54:04.003Z,68.27
2023-02-13T21:56:36.399Z,68.57
2023-02-13T21:59:05.460Z,68.81
2023-02-13T22:01:54.654Z,68.91
2023-02-13T22:04:22.854Z,68.42
2023-02-13T22:06:52.154Z,69.14
2023-02-13T22:09:21.389Z,69.45
2023-02-13T22:11:51.446Z,69.16
2023-02-13T22:14:19.576Z,69.14
2023-02-13T22:16:50.848Z,69.03
2023-02-13T22:19:18.439Z,69.57
2023-02-13T22:21:46.227Z,70.27
2023-02-13T22:24:13.771Z,70.47
2023-02-13T22:26:45.193Z,70.26
2023-02-13T22:29:14.672Z,70.11
2023-02-13T22:31:43.531Z,71.08
2023-02-13T22:34:13.425Z,71.45
2023-02-13T22:36:41.451Z,71.28
2023-02-13T22:39:10.416Z,70.93
2023-02-13T22:41:37.800Z,70.49
2023-02-13T22:44:05.320Z,70.42
2023-02-13T22:46:34.037Z,70.63
2023-02-13T22:49:02.019Z,70.34
2023-02-13T22:51:34.877Z,70.53
2023-02-13T22:54:03.241Z,70.45
2023-02-13T22:56:31.258Z,70.45
2023-02-13T22:58:59.929Z,70.27
2023-02-13T23:01:29.024Z,70.52
2023-02-13T23:03:57.343Z,70.35
2023-02-13T23:06:25.588Z,70.52
2023-02-13T23:08:53.769Z,70.79
2023-02-13T23:11:45.750Z,70.53
2023-02-13T23:14:13.351Z,70.58
2023-02-13T23:17:00.226Z,70.75
2023-02-13T23:19:29.744Z,70.54
2023-02-13T23:21:57.796Z,70.24
2023-02-13T23:24:25.419Z,70.40
2023-02-13T23:26:52.730Z,70.23
2023-02-13T23:29:20.643Z,70.19
2023-02-13T23:31:48.066Z,70.31
2023-02-13T23:34:15.595Z,70.57
2023-02-13T23:36:42.995Z,70.66
2023-02-13T23:39:10.503Z,70.45
2023-02-13T23:41:37.859Z,70.48
2023-02-13T23:44:05.248Z,70.51
2023-02-13T23:46:32.718Z,70.22
2023-02-13T23:49:00.659Z,70.34
2023-02-13T23:51:28.018Z,70.87
2023-02-13T23:53:57.308Z,70.66
2023-02-13T23:56:25.529Z,70.72
2023-02-13T23:58:55.704Z,70.54
